createdAt,value
2022-11-18T00:01:44.147Z,100248.43
2022-11-18T00:04:20.308Z,100242.71
2022-11-18T00:06:55.081Z,100238.57
2022-11-18T00:09:27.808Z,100234.70
2022-11-18T00:12:17.870Z,100231.89
2022-11-18T00:14:50.952Z,100231.76
2022-11-18T00:17:23.555Z,100229.08
2022-11-18T00:19:56.287Z,100230.52
2022-11-18T00:22:30.111Z,100230.52
2022-11-18T00:25:03.164Z,100231.22
2022-11-18T00:27:35.743Z,100234.99
2022-11-18T00:30:11.185Z,100233.34
2022-11-18T00:32:45.254Z,100230.85
2022-11-18T00:35:18.661Z,100230.57
2022-11-18T00:37:51.436Z,100229.50
2022-11-18T00:40:24.144Z,100229.69
2022-11-18T00:42:56.748Z,100228.00
2022-11-18T00:45:31.479Z,100230.68
2022-11-18T00:48:04.587Z,100229.35
2022-11-18T00:50:39.407Z,100232.33
2022-11-18T00:53:12.452Z,100231.88
2022-11-18T00:55:47.101Z,100224.84
2022-11-18T00:58:20.373Z,100222.59
2022-11-18T01:00:55.168Z,100216.75
2022-11-18T01:03:28.815Z,100214.21
2022-11-18T01:06:01.667Z,100204.87
2022-11-18T01:08:34.250Z,100205.39
2022-11-18T01:11:21.159Z,100199.65
2022-11-18T01:13:54.627Z,100203.02
2022-11-18T01:16:29.629Z,100208.25
2022-11-18T01:19:02.287Z,100209.13
2022-11-18T01:21:35.058Z,100214.42
2022-11-18T01:24:11.373Z,100214.25
2022-11-18T01:26:44.660Z,100215.37
2022-11-18T01:29:17.866Z,100218.13
2022-11-18T01:32:22.801Z,100222.95
2022-11-18T01:34:48.781Z,100222.64
2022-11-18T01:37:21.652Z,100213.33
2022-11-18T01:39:54.426Z,100208.70
2022-11-18T01:42:27.471Z,100208.20
2022-11-18T01:45:10.084Z,100211.17
2022-11-18T01:47:47.132Z,100214.10
2022-11-18T01:50:22.003Z,100212.60
2022-11-18T01:52:57.407Z,100211.11
2022-11-18T01:55:35.250Z,100208.48
2022-11-18T01:58:17.009Z,100207.94
2022-11-18T02:00:49.739Z,100213.38
2022-11-18T02:03:23.896Z,100214.94
2022-11-18T02:05:57.034Z,100217.56
2022-11-18T02:08:31.126Z,100220.24
2022-11-18T02:11:03.681Z,100220.91
2022-11-18T02:13:36.141Z,100225.81
2022-11-18T02:16:15.908Z,100224.02
2022-11-18T02:18:54.004Z,100223.50
2022-11-18T02:21:35.155Z,100228.54
2022-11-18T02:24:38.805Z,100230.23
2022-11-18T02:27:37.813Z,100237.73
2022-11-18T02:30:12.198Z,100238.30
2022-11-18T02:32:55.129Z,100235.64
2022-11-18T02:35:34.178Z,100235.45
2022-11-18T02:38:10.464Z,100234.33
2022-11-18T02:40:49.264Z,100231.77
2022-11-18T02:43:33.055Z,100230.16
2022-11-18T02:46:10.131Z,100230.47
2022-11-18T02:48:47.728Z,100229.81
2022-11-18T02:51:25.491Z,100227.09
2022-11-18T02:54:01.951Z,100225.94
2022-11-18T02:56:38.461Z,100225.61
2022-11-18T02:59:13.799Z,100228.52
2022-11-18T03:01:46.023Z,100226.64
2022-11-18T03:04:20.524Z,100226.14
2022-11-18T03:07:01.488Z,100232.09
2022-11-18T03:09:36.711Z,100235.04
2022-11-18T03:12:19.036Z,100231.70
2022-11-18T03:15:02.751Z,100229.82
2022-11-18T03:17:47.114Z,100229.69
2022-11-18T03:20:25.249Z,100229.95
2022-11-18T03:23:05.660Z,100224.48
2022-11-18T03:25:45.363Z,100228.42
2022-11-18T03:28:22.686Z,100228.63
2022-11-18T03:31:02.561Z,100229.48
2022-11-18T03:33:39.762Z,100228.05
2022-11-18T03:36:15.647Z,100232.04
2022-11-18T03:38:54.633Z,100228.77
2022-11-18T03:41:30.877Z,100227.01
2022-11-18T03:44:09.404Z,100231.77
2022-11-18T03:46:44.689Z,100234.91
2022-11-18T03:49:22.934Z,100234.88
2022-11-18T03:51:59.703Z,100235.75
2022-11-18T03:54:35.206Z,100231.72
2022-11-18T03:57:16.966Z,100230.66
2022-11-18T03:59:53.594Z,100233.95
2022-11-18T04:02:28.411Z,100234.50
2022-11-18T04:05:02.424Z,100236.67
2022-11-18T04:07:37.621Z,100234.71
2022-11-18T04:10:16.550Z,100235.20
2022-11-18T04:12:53.475Z,100230.89
2022-11-18T04:15:27.581Z,100230.63
2022-11-18T04:18:00.522Z,100229.88
2022-11-18T04:20:33.852Z,100226.61
2022-11-18T04:23:06.887Z,100229.62
2022-11-18T04:25:39.382Z,100229.55
2022-11-18T04:28:14.333Z,100233.67
2022-11-18T04:30:46.588Z,100235.69
2022-11-18T04:33:21.226Z,100234.39
2022-11-18T04:35:57.232Z,100234.27
2022-11-18T04:38:31.549Z,100238.23
2022-11-18T04:41:07.120Z,100237.57
2022-11-18T04:43:39.340Z,100238.09
2022-11-18T04:46:11.447Z,100238.54
2022-11-18T04:48:43.796Z,100236.73
2022-11-18T04:51:16.956Z,100241.44
2022-11-18T04:53:49.329Z,100240.14
2022-11-18T04:56:24.366Z,100241.92
2022-11-18T04:59:01.193Z,100240.19
2022-11-18T05:01:34.661Z,100243.05
2022-11-18T05:04:08.432Z,100241.15
2022-11-18T05:06:40.518Z,100241.58
2022-11-18T05:09:13.347Z,100241.88
2022-11-18T05:12:04.685Z,100241.08
2022-11-18T05:14:37.335Z,100243.49
2022-11-18T05:17:12.702Z,100240.67
2022-11-18T05:19:44.858Z,100239.14
2022-11-18T05:22:17.604Z,100241.98
2022-11-18T05:24:50.289Z,100243.69
2022-11-18T05:27:22.760Z,100242.51
2022-11-18T05:29:54.949Z,100245.20
2022-11-18T05:32:27.392Z,100242.59
2022-11-18T05:35:02.446Z,100238.83
2022-11-18T05:37:36.004Z,100242.31
2022-11-18T05:40:10.841Z,100244.66
2022-11-18T05:43:04.971Z,100243.30
2022-11-18T05:45:37.265Z,100246.17
2022-11-18T05:48:10.336Z,100247.18
2022-11-18T05:50:42.729Z,100252.15
2022-11-18T05:53:18.152Z,100253.90
2022-11-18T05:55:56.502Z,100254.50
2022-11-18T05:58:29.201Z,100254.52
2022-11-18T06:01:06.350Z,100252.16
2022-11-18T06:03:41.806Z,100256.11
2022-11-18T06:06:18.352Z,100253.59
2022-11-18T06:08:57.539Z,100255.59
2022-11-18T06:11:31.425Z,100254.16
2022-11-18T06:14:08.568Z,100260.58
2022-11-18T06:16:46.013Z,100264.98
2022-11-18T06:19:19.081Z,100265.21
2022-11-18T06:21:52.173Z,100261.51
2022-11-18T06:24:38.343Z,100268.00
2022-11-18T06:27:10.664Z,100268.48
2022-11-18T06:29:42.759Z,100270.20
2022-11-18T06:32:14.974Z,100269.58
2022-11-18T06:34:47.189Z,100271.86
2022-11-18T06:37:21.781Z,100270.23
2022-11-18T06:39:54.003Z,100277.55
2022-11-18T06:42:46.345Z,100278.83
2022-11-18T06:45:18.857Z,100281.73
2022-11-18T06:47:51.086Z,100275.56
2022-11-18T06:50:25.651Z,100277.98
2022-11-18T06:52:57.911Z,100280.42
2022-11-18T06:55:33.115Z,100283.04
2022-11-18T06:58:08.218Z,100286.04
2022-11-18T07:00:40.648Z,100290.20
2022-11-18T07:03:12.826Z,100289.95
2022-11-18T07:05:45.349Z,100292.02
2022-11-18T07:08:17.476Z,100290.95
2022-11-18T07:10:56.359Z,100295.34
2022-11-18T07:13:29.824Z,100293.92
2022-11-18T07:16:10.170Z,100294.25
2022-11-18T07:18:43.919Z,100296.44
2022-11-18T07:21:18.720Z,100295.39
2022-11-18T07:23:51.347Z,100296.41
2022-11-18T07:26:26.213Z,100289.64
2022-11-18T07:28:58.600Z,100291.39
2022-11-18T07:31:31.712Z,100287.61
2022-11-18T07:34:04.295Z,100290.27
2022-11-18T07:36:37.074Z,100291.73
2022-11-18T07:39:12.432Z,100292.68
2022-11-18T07:41:47.224Z,100289.42
2022-11-18T07:44:19.627Z,100287.44
2022-11-18T07:46:51.814Z,100290.63
2022-11-18T07:49:23.997Z,100290.70
2022-11-18T07:51:58.790Z,100290.98
2022-11-18T07:54:31.039Z,100289.00
2022-11-18T07:57:03.371Z,100287.08
2022-11-18T07:59:35.942Z,100288.11
2022-11-18T08:02:08.270Z,100289.34
2022-11-18T08:04:41.487Z,100289.54
2022-11-18T08:07:14.261Z,100289.88
2022-11-18T08:10:05.191Z,100291.21
2022-11-18T08:12:37.967Z,100286.06
2022-11-18T08:15:12.016Z,100288.27
2022-11-18T08:17:44.118Z,100289.59
2022-11-18T08:20:17.289Z,100292.69
2022-11-18T08:22:49.470Z,100294.81
2022-11-18T08:25:21.728Z,100293.20
2022-11-18T08:27:53.883Z,100293.86
2022-11-18T08:30:26.184Z,100294.59
2022-11-18T08:32:58.600Z,100288.17
2022-11-18T08:35:31.311Z,100293.61
2022-11-18T08:38:03.489Z,100290.92
2022-11-18T08:40:36.589Z,100292.84
2022-11-18T08:43:12.505Z,100289.39
2022-11-18T08:45:45.079Z,100293.89
2022-11-18T08:48:17.202Z,100297.30
2022-11-18T08:50:49.629Z,100301.86
2022-11-18T08:53:22.842Z,100301.40
2022-11-18T08:55:59.248Z,100300.40
2022-11-18T08:58:31.611Z,100299.42
2022-11-18T09:01:08.929Z,100299.44
2022-11-18T09:03:42.472Z,100299.42
2022-11-18T09:06:16.693Z,100299.89
2022-11-18T09:08:49.549Z,100297.34
2022-11-18T09:11:23.543Z,100293.44
2022-11-18T09:14:53.368Z,100293.73
2022-11-18T09:16:50.545Z,100289.73
2022-11-18T09:22:15.095Z,100287.38
2022-11-18T09:24:47.153Z,100293.86
2022-11-18T09:27:19.375Z,100298.77
2022-11-18T09:29:51.687Z,100297.81
2022-11-18T09:32:24.018Z,100292.98
2022-11-18T09:34:56.222Z,100297.01
2022-11-18T09:37:28.565Z,100290.84
2022-11-18T09:40:01.036Z,100291.38
2022-11-18T09:42:51.466Z,100293.60
2022-11-18T09:45:28.458Z,100286.11
2022-11-18T09:48:09.041Z,100286.43
2022-11-18T09:50:49.685Z,100284.91
2022-11-18T09:53:25.223Z,100287.33
2022-11-18T09:56:01.031Z,100287.14
2022-11-18T09:58:36.318Z,100286.36
2022-11-18T10:01:15.634Z,100290.39
2022-11-18T10:03:48.419Z,100288.63
2022-11-18T10:06:26.646Z,100285.98
2022-11-18T10:09:13.721Z,100289.50
2022-11-18T10:11:55.139Z,100286.59
2022-11-18T10:14:41.094Z,100282.47
2022-11-18T10:17:26.293Z,100278.70
2022-11-18T10:20:13.959Z,100281.09
2022-11-18T10:22:53.599Z,100279.60
2022-11-18T10:25:25.962Z,100285.23
2022-11-18T10:28:03.910Z,100281.92
2022-11-18T10:30:36.154Z,100286.55
2022-11-18T10:33:25.061Z,100288.16
2022-11-18T10:36:28.466Z,100284.59
2022-11-18T10:39:12.534Z,100292.02
2022-11-18T10:41:50.938Z,100291.84
2022-11-18T10:44:38.209Z,100297.76
2022-11-18T10:47:30.137Z,100302.04
2022-11-18T10:50:23.392Z,100301.33
2022-11-18T10:52:57.558Z,100301.55
2022-11-18T10:55:32.183Z,100300.30
2022-11-18T10:58:10.646Z,100303.62
2022-11-18T11:00:45.840Z,100303.51
2022-11-18T11:03:26.541Z,100304.15
2022-11-18T11:06:22.547Z,100303.55
2022-11-18T11:08:59.583Z,100309.80
2022-11-18T11:11:34.196Z,100307.71
2022-11-18T11:14:23.117Z,100308.49
2022-11-18T11:17:03.360Z,100306.94
2022-11-18T11:19:43.154Z,100305.40
2022-11-18T11:22:15.758Z,100310.14
2022-11-18T11:24:48.566Z,100310.38
2022-11-18T11:30:38.799Z,100306.42
2022-11-18T11:33:34.021Z,100304.92
2022-11-18T11:36:34.062Z,100301.69
2022-11-18T11:39:22.800Z,100306.48
2022-11-18T11:42:06.226Z,100303.00
2022-11-18T11:44:54.319Z,100299.48
2022-11-18T11:47:49.508Z,100300.17
2022-11-18T11:50:29.435Z,100301.38
2022-11-18T11:53:17.395Z,100300.34
2022-11-18T11:56:04.000Z,100298.78
2022-11-18T11:58:56.187Z,100301.90
2022-11-18T12:01:37.912Z,100304.64
2022-11-18T12:04:31.397Z,100301.52
2022-11-18T12:07:04.829Z,100307.07
2022-11-18T12:09:51.766Z,100309.50
2022-11-18T12:12:38.512Z,100311.95
2022-11-18T12:15:37.204Z,100312.53
2022-11-18T12:18:16.189Z,100318.73
2022-11-18T12:20:50.610Z,100318.81
2022-11-18T12:23:26.551Z,100318.91
2022-11-18T12:26:11.238Z,100323.98
2022-11-18T12:28:45.767Z,100329.10
2022-11-18T12:31:37.272Z,100325.91
2022-11-18T12:34:29.533Z,100331.36
2022-11-18T12:37:38.875Z,100332.45
2022-11-18T12:40:31.642Z,100342.61
2022-11-18T12:43:22.497Z,100342.98
2022-11-18T12:45:59.057Z,100342.58
2022-11-18T12:48:41.990Z,100342.88
2022-11-18T12:51:50.144Z,100343.67
2022-11-18T12:54:34.782Z,100345.48
2022-11-18T12:57:19.741Z,100347.80
2022-11-18T12:59:52.331Z,100346.33
2022-11-18T13:02:29.035Z,100341.91
2022-11-18T13:05:12.675Z,100336.13
2022-11-18T13:08:06.533Z,100330.66
2022-11-18T13:10:54.686Z,100332.20
2022-11-18T13:13:32.533Z,100327.33
2022-11-18T13:16:38.289Z,100327.03
2022-11-18T13:19:21.907Z,100336.63
2022-11-18T13:22:15.909Z,100336.35
2022-11-18T13:24:49.878Z,100333.11
2022-11-18T13:27:39.055Z,100340.73
2022-11-18T13:30:16.248Z,100345.05
2022-11-18T13:32:49.330Z,100345.48
2022-11-18T13:35:24.547Z,100348.41
2022-11-18T13:37:58.792Z,100347.52
2022-11-18T13:40:39.218Z,100349.73
2022-11-18T13:43:14.036Z,100356.14
2022-11-18T13:45:48.749Z,100354.38
2022-11-18T13:48:21.560Z,100351.79
2022-11-18T13:50:57.147Z,100354.20
2022-11-18T13:53:34.327Z,100359.70
2022-11-18T13:56:08.957Z,100360.44
2022-11-18T14:01:36.772Z,100361.25
2022-11-18T14:04:17.739Z,100361.30
2022-11-18T14:06:49.995Z,100363.34
2022-11-18T14:09:27.752Z,100366.99
2022-11-18T14:12:07.591Z,100362.52
2022-11-18T14:14:41.976Z,100362.36
2022-11-18T14:17:22.572Z,100359.40
2022-11-18T14:19:56.578Z,100364.84
2022-11-18T14:22:31.548Z,100365.56
2022-11-18T14:25:24.853Z,100366.03
2022-11-18T14:27:58.223Z,100368.30
2022-11-18T14:30:34.730Z,100373.02
2022-11-18T14:33:21.791Z,100374.96
2022-11-18T14:35:57.224Z,100382.89
2022-11-18T14:38:51.953Z,100378.83
2022-11-18T14:41:49.017Z,100383.83
2022-11-18T14:44:23.102Z,100385.70
2022-11-18T14:46:59.416Z,100386.84
2022-11-18T14:49:33.040Z,100389.27
2022-11-18T14:52:05.236Z,100387.83
2022-11-18T14:54:47.718Z,100394.48
2022-11-18T14:57:20.275Z,100391.40
2022-11-18T14:59:57.971Z,100397.29
2022-11-18T15:02:30.391Z,100398.47
2022-11-18T15:05:02.617Z,100403.00
2022-11-18T15:07:34.816Z,100399.55
2022-11-18T15:10:07.601Z,100407.19
2022-11-18T15:12:42.020Z,100410.87
2022-11-18T15:15:17.005Z,100416.50
2022-11-18T15:17:53.812Z,100421.67
2022-11-18T15:20:26.720Z,100425.23
2022-11-18T15:22:58.896Z,100431.66
2022-11-18T15:25:33.855Z,100432.88
2022-11-18T15:28:06.761Z,100435.92
2022-11-18T15:30:41.578Z,100439.66
2022-11-18T15:33:13.773Z,100442.89
2022-11-18T15:35:45.944Z,100444.86
2022-11-18T15:38:18.037Z,100444.70
2022-11-18T15:40:50.522Z,100445.23
2022-11-18T15:43:23.094Z,100450.80
2022-11-18T15:46:00.783Z,100454.94
2022-11-18T15:48:36.160Z,100456.70
2022-11-18T15:51:12.073Z,100458.41
2022-11-18T15:53:44.674Z,100460.63
2022-11-18T15:56:32.965Z,100464.30
2022-11-18T15:59:07.033Z,100470.67
2022-11-18T16:01:43.653Z,100474.40
2022-11-18T16:04:19.563Z,100479.21
2022-11-18T16:06:53.649Z,100479.61
2022-11-18T16:09:46.352Z,100482.69
2022-11-18T16:12:36.239Z,100486.72
2022-11-18T16:15:28.740Z,100493.50
2022-11-18T16:18:01.505Z,100492.92
2022-11-18T16:20:36.326Z,100495.91
2022-11-18T16:23:08.829Z,100496.32
2022-11-18T16:25:46.400Z,100497.66
2022-11-18T16:28:18.831Z,100497.49
2022-11-18T16:31:10.135Z,100498.06
2022-11-18T16:33:42.489Z,100507.85
2022-11-18T16:36:31.475Z,100509.93
2022-11-18T16:39:09.339Z,100515.06
2022-11-18T16:41:42.943Z,100521.90
2022-11-18T16:44:16.719Z,100526.65
2022-11-18T16:46:50.921Z,100530.83
2022-11-18T16:49:25.037Z,100533.57
2022-11-18T16:51:58.544Z,100533.84
2022-11-18T16:54:33.144Z,100531.47
2022-11-18T16:57:16.628Z,100534.13
2022-11-18T16:59:49.460Z,100524.73
2022-11-18T17:02:23.834Z,100534.09
2022-11-18T17:04:56.497Z,100537.21
2022-11-18T17:07:30.658Z,100537.77
2022-11-18T17:10:19.660Z,100535.32
2022-11-18T17:12:51.949Z,100536.77
2022-11-18T17:15:24.107Z,100538.55
2022-11-18T17:17:57.426Z,100542.23
2022-11-18T17:20:29.561Z,100542.48
2022-11-18T17:23:01.804Z,100542.48
2022-11-18T17:25:38.680Z,100543.56
2022-11-18T17:28:11.235Z,100539.24
2022-11-18T17:30:48.619Z,100535.71
2022-11-18T17:33:22.188Z,100537.55
2022-11-18T17:36:02.960Z,100537.48
2022-11-18T17:38:37.820Z,100540.91
2022-11-18T17:41:32.883Z,100541.27
2022-11-18T17:44:07.738Z,100539.52
2022-11-18T17:46:41.058Z,100541.16
2022-11-18T17:49:17.964Z,100541.16
2022-11-18T17:51:51.685Z,100543.91
2022-11-18T17:54:24.225Z,100542.84
2022-11-18T17:56:56.846Z,100549.01
2022-11-18T17:59:29.062Z,100543.77
2022-11-18T18:02:01.432Z,100545.84
2022-11-18T18:04:33.861Z,100546.71
2022-11-18T18:07:05.998Z,100546.77
2022-11-18T18:09:38.145Z,100551.85
2022-11-18T18:12:24.584Z,100555.42
2022-11-18T18:14:56.955Z,100560.02
2022-11-18T18:17:37.283Z,100559.66
2022-11-18T18:20:15.729Z,100561.86
2022-11-18T18:22:47.945Z,100565.08
2022-11-18T18:25:20.375Z,100567.05
2022-11-18T18:27:52.808Z,100567.34
2022-11-18T18:30:27.527Z,100567.38
2022-11-18T18:33:07.069Z,100570.17
2022-11-18T18:35:43.501Z,100568.86
2022-11-18T18:38:15.849Z,100572.17
2022-11-18T18:40:48.098Z,100574.30
2022-11-18T18:43:20.300Z,100578.16
2022-11-18T18:46:10.310Z,100576.68
2022-11-18T18:48:42.853Z,100580.05
2022-11-18T18:51:15.472Z,100580.56
2022-11-18T18:53:47.962Z,100587.16
2022-11-18T18:56:20.867Z,100592.62
2022-11-18T18:58:53.592Z,100592.14
2022-11-18T19:01:27.787Z,100594.39
2022-11-18T19:04:03.102Z,100596.59
2022-11-18T19:09:29.986Z,100609.41
2022-11-18T19:12:27.680Z,100609.44
2022-11-18T19:14:59.804Z,100615.58
2022-11-18T19:17:32.374Z,100618.13
2022-11-18T19:20:21.740Z,100619.29
2022-11-18T19:22:55.353Z,100618.71
2022-11-18T19:25:27.564Z,100617.23
2022-11-18T19:28:00.056Z,100619.36
2022-11-18T19:30:33.451Z,100619.91
2022-11-18T19:33:06.153Z,100619.91
2022-11-18T19:35:39.486Z,100622.30
2022-11-18T19:38:12.135Z,100627.65
2022-11-18T19:40:44.839Z,100625.27
2022-11-18T19:43:17.011Z,100629.09
2022-11-18T19:45:55.079Z,100630.41
2022-11-18T19:48:41.678Z,100632.02
2022-11-18T19:51:15.324Z,100629.47
2022-11-18T19:53:49.729Z,100633.73
2022-11-18T19:56:23.150Z,100636.39
2022-11-18T19:58:55.844Z,100637.79
2022-11-18T20:01:29.947Z,100639.67
2022-11-18T20:04:03.217Z,100639.05
2022-11-18T20:06:38.038Z,100641.10
2022-11-18T20:09:26.659Z,100645.70
2022-11-18T20:12:02.526Z,100648.05
2022-11-18T20:14:34.973Z,100643.25
2022-11-18T20:17:07.162Z,100638.58
2022-11-18T20:19:41.996Z,100646.08
2022-11-18T20:22:14.356Z,100649.16
2022-11-18T20:24:46.587Z,100653.61
2022-11-18T20:27:18.902Z,100656.76
2022-11-18T20:29:51.113Z,100655.09
2022-11-18T20:32:23.248Z,100663.76
2022-11-18T20:34:55.501Z,100664.64
2022-11-18T20:37:28.181Z,100669.37
2022-11-18T20:40:00.621Z,100673.57
2022-11-18T20:45:56.103Z,100677.86
2022-11-18T20:48:28.639Z,100674.23
2022-11-18T20:51:03.551Z,100675.52
2022-11-18T20:53:37.971Z,100677.92
2022-11-18T20:56:11.161Z,100677.77
2022-11-18T20:59:19.502Z,100679.77
2022-11-18T21:01:52.077Z,100675.30
2022-11-18T21:04:24.544Z,100677.35
2022-11-18T21:07:00.984Z,100685.63
2022-11-18T21:09:33.594Z,100681.72
2022-11-18T21:12:05.899Z,100682.90
2022-11-18T21:14:38.360Z,100685.56
2022-11-18T21:17:10.703Z,100683.20
2022-11-18T21:19:47.433Z,100683.23
2022-11-18T21:22:20.991Z,100681.55
2022-11-18T21:24:55.742Z,100683.76
2022-11-18T21:27:28.529Z,100689.98
2022-11-18T21:30:00.722Z,100691.66
2022-11-18T21:32:32.802Z,100692.58
2022-11-18T21:35:09.010Z,100689.55
2022-11-18T21:37:41.384Z,100688.91
2022-11-18T21:40:15.296Z,100687.36
2022-11-18T21:42:47.400Z,100683.70
2022-11-18T21:48:42.331Z,100681.52
2022-11-18T21:51:17.538Z,100688.21
2022-11-18T21:53:50.189Z,100687.47
2022-11-18T21:56:25.072Z,100691.63
2022-11-18T21:58:59.043Z,100691.65
2022-11-18T22:01:36.995Z,100693.42
2022-11-18T22:04:29.741Z,100691.98
2022-11-18T22:07:02.079Z,100695.96
2022-11-18T22:09:36.800Z,100694.39
2022-11-18T22:12:15.531Z,100692.80
2022-11-18T22:14:48.580Z,100690.23
2022-11-18T22:17:21.115Z,100690.41
2022-11-18T22:19:53.255Z,100692.83
2022-11-18T22:22:25.489Z,100694.27
2022-11-18T22:25:24.634Z,100690.44
2022-11-18T22:28:00.501Z,100691.21
2022-11-18T22:30:33.847Z,100691.93
2022-11-18T22:33:09.066Z,100690.55
2022-11-18T22:35:43.699Z,100686.39
2022-11-18T22:38:15.844Z,100686.56
2022-11-18T22:40:48.056Z,100687.36
2022-11-18T22:43:23.130Z,100686.84
2022-11-18T22:46:17.090Z,100684.14
2022-11-18T22:48:50.204Z,100687.04
2022-11-18T22:51:24.773Z,100688.51
2022-11-18T22:54:30.696Z,100690.86
2022-11-18T22:56:54.188Z,100688.85
2022-11-18T22:59:27.129Z,100693.39
2022-11-18T23:02:04.988Z,100695.43
2022-11-18T23:04:50.845Z,100696.61
2022-11-18T23:07:23.082Z,100701.13
2022-11-18T23:09:55.324Z,100709.11
2022-11-18T23:12:48.174Z,100713.39
2022-11-18T23:15:20.471Z,100713.99
2022-11-18T23:17:52.997Z,100713.05
2022-11-18T23:20:29.777Z,100712.13
2022-11-18T23:23:04.151Z,100711.56
2022-11-18T23:25:39.049Z,100714.70
2022-11-18T23:28:11.140Z,100721.38
2022-11-18T23:30:43.273Z,100721.41
2022-11-18T23:33:15.432Z,100725.98
2022-11-18T23:35:54.622Z,100728.66
2022-11-18T23:38:29.358Z,100722.48
2022-11-18T23:41:03.313Z,100720.05
2022-11-18T23:43:36.247Z,100717.27
2022-11-18T23:46:11.051Z,100713.67
2022-11-18T23:48:44.537Z,100706.98
2022-11-18T23:51:18.412Z,100709.60
2022-11-18T23:53:55.262Z,100711.04
2022-11-18T23:56:28.497Z,100712.77
2022-11-18T23:59:00.707Z,100711.80
